sensor_id;sensor_type;location;lat;lon;timestamp;temperature;humidity
14053;DHT22;7101;51.600;7.310;2023-01-16T00:01:58;5.70;22.60
14053;DHT22;7101;51.600;7.310;2023-01-16T00:04:26;5.70;27.50
14053;DHT22;7101;51.600;7.310;2023-01-16T00:06:54;5.70;29.60
14053;DHT22;7101;51.600;7.310;2023-01-16T00:09:26;5.70;29.60
14053;DHT22;7101;51.600;7.310;2023-01-16T00:11:52;5.80;30.00
14053;DHT22;7101;51.600;7.310;2023-01-16T00:14:19;5.70;29.40
14053;DHT22;7101;51.600;7.310;2023-01-16T00:16:47;5.70;29.80
14053;DHT22;7101;51.600;7.310;2023-01-16T00:19:14;5.70;26.50
14053;DHT22;7101;51.600;7.310;2023-01-16T00:21:41;5.70;25.30
14053;DHT22;7101;51.600;7.310;2023-01-16T00:24:09;5.80;25.00
14053;DHT22;7101;51.600;7.310;2023-01-16T00:26:38;5.70;21.70
14053;DHT22;7101;51.600;7.310;2023-01-16T00:29:05;5.80;19.10
14053;DHT22;7101;51.600;7.310;2023-01-16T00:31:34;5.80;18.70
14053;DHT22;7101;51.600;7.310;2023-01-16T00:34:01;5.80;15.20
14053;DHT22;7101;51.600;7.310;2023-01-16T00:36:28;5.80;12.80
14053;DHT22;7101;51.600;7.310;2023-01-16T00:38:56;5.80;10.90
14053;DHT22;7101;51.600;7.310;2023-01-16T00:41:24;5.90;6.80
14053;DHT22;7101;51.600;7.310;2023-01-16T00:43:53;5.90;5.70
14053;DHT22;7101;51.600;7.310;2023-01-16T00:46:24;5.90;5.90
14053;DHT22;7101;51.600;7.310;2023-01-16T00:48:51;5.90;1.00
14053;DHT22;7101;51.600;7.310;2023-01-16T00:51:18;5.90;1.00
14053;DHT22;7101;51.600;7.310;2023-01-16T00:53:45;5.90;1.00
14053;DHT22;7101;51.600;7.310;2023-01-16T00:56:12;5.90;1.00
14053;DHT22;7101;51.600;7.310;2023-01-16T00:58:39;5.70;1.00
14053;DHT22;7101;51.600;7.310;2023-01-16T01:01:07;5.60;1.00
14053;DHT22;7101;51.600;7.310;2023-01-16T01:03:34;5.50;1.00
14053;DHT22;7101;51.600;7.310;2023-01-16T01:06:05;5.60;1.00
14053;DHT22;7101;51.600;7.310;2023-01-16T01:08:32;5.50;1.00
14053;DHT22;7101;51.600;7.310;2023-01-16T01:11:06;5.50;1.00
14053;DHT22;7101;51.600;7.310;2023-01-16T01:13:33;5.60;1.00
14053;DHT22;7101;51.600;7.310;2023-01-16T01:16:01;5.60;1.00
14053;DHT22;7101;51.600;7.310;2023-01-16T01:18:29;5.70;1.00
14053;DHT22;7101;51.600;7.310;2023-01-16T01:20:56;5.80;1.00
14053;DHT22;7101;51.600;7.310;2023-01-16T01:23:23;5.80;1.00
14053;DHT22;7101;51.600;7.310;2023-01-16T01:25:50;5.90;1.00
14053;DHT22;7101;51.600;7.310;2023-01-16T01:28:20;5.80;1.00
14053;DHT22;7101;51.600;7.310;2023-01-16T01:30:47;5.80;1.00
14053;DHT22;7101;51.600;7.310;2023-01-16T01:33:15;5.80;1.00
14053;DHT22;7101;51.600;7.310;2023-01-16T01:35:43;5.80;1.00
14053;DHT22;7101;51.600;7.310;2023-01-16T01:38:10;5.70;1.00
14053;DHT22;7101;51.600;7.310;2023-01-16T01:40:37;5.70;1.00
14053;DHT22;7101;51.600;7.310;2023-01-16T01:43:10;5.60;1.00
14053;DHT22;7101;51.600;7.310;2023-01-16T01:45:39;5.50;1.00
14053;DHT22;7101;51.600;7.310;2023-01-16T01:48:20;5.40;1.00
14053;DHT22;7101;51.600;7.310;2023-01-16T01:50:56;5.40;1.00
14053;DHT22;7101;51.600;7.310;2023-01-16T01:53:27;5.30;1.00
14053;DHT22;7101;51.600;7.310;2023-01-16T01:55:58;5.20;1.00
14053;DHT22;7101;51.600;7.310;2023-01-16T01:58:27;5.20;1.00
14053;DHT22;7101;51.600;7.310;2023-01-16T02:00:57;5.20;1.10
14053;DHT22;7101;51.600;7.310;2023-01-16T02:03:29;5.10;1.70
14053;DHT22;7101;51.600;7.310;2023-01-16T02:06:01;5.30;1.00
14053;DHT22;7101;51.600;7.310;2023-01-16T02:08:33;5.10;1.00
14053;DHT22;7101;51.600;7.310;2023-01-16T02:11:03;5.20;1.00
14053;DHT22;7101;51.600;7.310;2023-01-16T02:13:31;5.10;1.90
14053;DHT22;7101;51.600;7.310;2023-01-16T02:15:58;5.10;2.80
14053;DHT22;7101;51.600;7.310;2023-01-16T02:18:43;4.90;6.00
14053;DHT22;7101;51.600;7.310;2023-01-16T02:22:09;4.80;9.70
14053;DHT22;7101;51.600;7.310;2023-01-16T02:25:02;4.80;12.90
14053;DHT22;7101;51.600;7.310;2023-01-16T02:27:53;4.80;13.30
14053;DHT22;7101;51.600;7.310;2023-01-16T02:30:47;4.70;16.00
14053;DHT22;7101;51.600;7.310;2023-01-16T02:33:19;4.70;16.20
14053;DHT22;7101;51.600;7.310;2023-01-16T02:36:00;4.70;17.20
14053;DHT22;7101;51.600;7.310;2023-01-16T02:38:38;4.60;19.20
14053;DHT22;7101;51.600;7.310;2023-01-16T02:41:17;4.60;20.50
14053;DHT22;7101;51.600;7.310;2023-01-16T02:43:52;4.50;21.80
14053;DHT22;7101;51.600;7.310;2023-01-16T02:46:27;4.60;26.00
14053;DHT22;7101;51.600;7.310;2023-01-16T02:49:01;4.60;26.60
14053;DHT22;7101;51.600;7.310;2023-01-16T02:51:36;4.60;24.00
14053;DHT22;7101;51.600;7.310;2023-01-16T02:54:07;4.70;22.80
14053;DHT22;7101;51.600;7.310;2023-01-16T02:56:42;4.70;21.60
14053;DHT22;7101;51.600;7.310;2023-01-16T02:59:13;4.70;22.40
14053;DHT22;7101;51.600;7.310;2023-01-16T03:01:44;4.70;22.40
14053;DHT22;7101;51.600;7.310;2023-01-16T03:04:38;4.70;22.70
14053;DHT22;7101;51.600;7.310;2023-01-16T03:07:16;4.70;24.20
14053;DHT22;7101;51.600;7.310;2023-01-16T03:09:55;4.70;26.10
14053;DHT22;7101;51.600;7.310;2023-01-16T03:12:32;4.70;31.40
14053;DHT22;7101;51.600;7.310;2023-01-16T03:15:11;4.80;32.50
14053;DHT22;7101;51.600;7.310;2023-01-16T03:17:50;4.90;30.20
14053;DHT22;7101;51.600;7.310;2023-01-16T03:20:30;5.00;28.10
14053;DHT22;7101;51.600;7.310;2023-01-16T03:23:08;5.00;25.70
14053;DHT22;7101;51.600;7.310;2023-01-16T03:25:45;5.10;22.30
14053;DHT22;7101;51.600;7.310;2023-01-16T03:28:22;5.20;18.30
14053;DHT22;7101;51.600;7.310;2023-01-16T03:30:55;5.20;18.10
14053;DHT22;7101;51.600;7.310;2023-01-16T03:33:33;5.20;17.50
14053;DHT22;7101;51.600;7.310;2023-01-16T03:36:10;5.10;18.30
14053;DHT22;7101;51.600;7.310;2023-01-16T03:38:40;5.10;19.10
14053;DHT22;7101;51.600;7.310;2023-01-16T03:41:17;5.10;19.70
14053;DHT22;7101;51.600;7.310;2023-01-16T03:43:51;5.00;22.80
14053;DHT22;7101;51.600;7.310;2023-01-16T03:46:23;5.20;25.40
14053;DHT22;7101;51.600;7.310;2023-01-16T03:48:57;5.10;23.30
14053;DHT22;7101;51.600;7.310;2023-01-16T03:51:32;5.10;24.00
14053;DHT22;7101;51.600;7.310;2023-01-16T03:54:06;5.10;24.90
14053;DHT22;7101;51.600;7.310;2023-01-16T03:56:36;5.10;24.40
14053;DHT22;7101;51.600;7.310;2023-01-16T03:59:05;5.10;22.40
14053;DHT22;7101;51.600;7.310;2023-01-16T04:01:37;5.00;25.90
14053;DHT22;7101;51.600;7.310;2023-01-16T04:04:10;4.80;26.50
14053;DHT22;7101;51.600;7.310;2023-01-16T04:06:45;4.70;30.00
14053;DHT22;7101;51.600;7.310;2023-01-16T04:09:18;4.70;31.70
14053;DHT22;7101;51.600;7.310;2023-01-16T04:11:47;4.50;37.00
14053;DHT22;7101;51.600;7.310;2023-01-16T04:14:17;4.30;39.80
14053;DHT22;7101;51.600;7.310;2023-01-16T04:16:47;4.40;45.10
14053;DHT22;7101;51.600;7.310;2023-01-16T04:19:18;4.40;48.70
14053;DHT22;7101;51.600;7.310;2023-01-16T04:21:47;4.30;50.90
14053;DHT22;7101;51.600;7.310;2023-01-16T04:24:15;4.30;53.30
14053;DHT22;7101;51.600;7.310;2023-01-16T04:26:43;4.40;53.70
14053;DHT22;7101;51.600;7.310;2023-01-16T04:29:09;4.40;59.40
14053;DHT22;7101;51.600;7.310;2023-01-16T04:31:37;4.50;59.30
14053;DHT22;7101;51.600;7.310;2023-01-16T04:34:04;4.60;55.00
14053;DHT22;7101;51.600;7.310;2023-01-16T04:36:34;4.70;48.70
14053;DHT22;7101;51.600;7.310;2023-01-16T04:39:01;4.70;40.30
14053;DHT22;7101;51.600;7.310;2023-01-16T04:41:29;4.80;35.10
14053;DHT22;7101;51.600;7.310;2023-01-16T04:44:07;4.90;33.00
14053;DHT22;7101;51.600;7.310;2023-01-16T04:46:35;4.90;28.60
14053;DHT22;7101;51.600;7.310;2023-01-16T04:49:05;5.00;25.90
14053;DHT22;7101;51.600;7.310;2023-01-16T04:51:33;5.10;22.20
14053;DHT22;7101;51.600;7.310;2023-01-16T04:54:05;5.10;21.50
14053;DHT22;7101;51.600;7.310;2023-01-16T04:56:33;5.10;18.50
14053;DHT22;7101;51.600;7.310;2023-01-16T04:59:01;5.10;18.10
14053;DHT22;7101;51.600;7.310;2023-01-16T05:01:29;5.10;18.10
14053;DHT22;7101;51.600;7.310;2023-01-16T05:04:02;5.10;19.50
14053;DHT22;7101;51.600;7.310;2023-01-16T05:06:31;5.10;18.90
14053;DHT22;7101;51.600;7.310;2023-01-16T05:08:59;5.00;18.20
14053;DHT22;7101;51.600;7.310;2023-01-16T05:11:26;4.90;19.50
14053;DHT22;7101;51.600;7.310;2023-01-16T05:13:53;4.80;21.50
14053;DHT22;7101;51.600;7.310;2023-01-16T05:16:20;4.80;25.60
14053;DHT22;7101;51.600;7.310;2023-01-16T05:18:48;4.70;27.10
14053;DHT22;7101;51.600;7.310;2023-01-16T05:21:15;4.70;29.00
14053;DHT22;7101;51.600;7.310;2023-01-16T05:23:42;4.60;31.10
14053;DHT22;7101;51.600;7.310;2023-01-16T05:26:10;4.60;32.30
14053;DHT22;7101;51.600;7.310;2023-01-16T05:28:37;4.70;31.30
14053;DHT22;7101;51.600;7.310;2023-01-16T05:31:04;4.60;32.40
14053;DHT22;7101;51.600;7.310;2023-01-16T05:33:31;4.60;33.50
14053;DHT22;7101;51.600;7.310;2023-01-16T05:35:58;4.60;35.20
14053;DHT22;7101;51.600;7.310;2023-01-16T05:38:25;4.60;31.90
14053;DHT22;7101;51.600;7.310;2023-01-16T05:40:52;4.60;30.40
14053;DHT22;7101;51.600;7.310;2023-01-16T05:43:21;4.60;31.80
14053;DHT22;7101;51.600;7.310;2023-01-16T05:45:48;4.50;32.40
14053;DHT22;7101;51.600;7.310;2023-01-16T05:48:16;4.60;35.00
14053;DHT22;7101;51.600;7.310;2023-01-16T05:50:44;4.50;35.00
14053;DHT22;7101;51.600;7.310;2023-01-16T05:53:12;4.60;35.30
14053;DHT22;7101;51.600;7.310;2023-01-16T05:55:42;4.60;35.00
14053;DHT22;7101;51.600;7.310;2023-01-16T05:58:10;4.60;35.00
14053;DHT22;7101;51.600;7.310;2023-01-16T06:00:40;4.60;34.30
14053;DHT22;7101;51.600;7.310;2023-01-16T06:03:13;4.50;31.80
14053;DHT22;7101;51.600;7.310;2023-01-16T06:05:42;4.50;35.60
14053;DHT22;7101;51.600;7.310;2023-01-16T06:08:09;4.50;34.10
14053;DHT22;7101;51.600;7.310;2023-01-16T06:10:38;4.50;32.10
14053;DHT22;7101;51.600;7.310;2023-01-16T06:13:05;4.50;31.80
14053;DHT22;7101;51.600;7.310;2023-01-16T06:15:32;4.50;35.70
14053;DHT22;7101;51.600;7.310;2023-01-16T06:18:00;4.50;36.90
14053;DHT22;7101;51.600;7.310;2023-01-16T06:20:27;4.40;38.40
14053;DHT22;7101;51.600;7.310;2023-01-16T06:22:54;4.50;38.00
14053;DHT22;7101;51.600;7.310;2023-01-16T06:25:23;4.40;36.00
14053;DHT22;7101;51.600;7.310;2023-01-16T06:27:51;4.50;37.50
14053;DHT22;7101;51.600;7.310;2023-01-16T06:30:18;4.50;34.70
14053;DHT22;7101;51.600;7.310;2023-01-16T06:32:47;4.60;32.80
14053;DHT22;7101;51.600;7.310;2023-01-16T06:35:16;4.50;30.70
14053;DHT22;7101;51.600;7.310;2023-01-16T06:37:43;4.60;30.40
14053;DHT22;7101;51.600;7.310;2023-01-16T06:40:13;4.60;28.50
14053;DHT22;7101;51.600;7.310;2023-01-16T06:42:40;4.70;27.10
14053;DHT22;7101;51.600;7.310;2023-01-16T06:45:08;4.70;24.00
14053;DHT22;7101;51.600;7.310;2023-01-16T06:47:35;4.80;21.30
14053;DHT22;7101;51.600;7.310;2023-01-16T06:50:02;4.80;18.20
14053;DHT22;7101;51.600;7.310;2023-01-16T06:52:30;4.90;17.00
14053;DHT22;7101;51.600;7.310;2023-01-16T06:54:59;4.90;12.40
14053;DHT22;7101;51.600;7.310;2023-01-16T06:57:27;5.00;10.80
14053;DHT22;7101;51.600;7.310;2023-01-16T06:59:55;5.10;4.80
14053;DHT22;7101;51.600;7.310;2023-01-16T07:02:22;5.10;2.70
14053;DHT22;7101;51.600;7.310;2023-01-16T07:04:50;5.10;2.00
14053;DHT22;7101;51.600;7.310;2023-01-16T07:07:17;5.20;1.00
14053;DHT22;7101;51.600;7.310;2023-01-16T07:09:47;5.20;1.00
14053;DHT22;7101;51.600;7.310;2023-01-16T07:12:15;5.20;1.00
14053;DHT22;7101;51.600;7.310;2023-01-16T07:14:44;5.30;1.00
14053;DHT22;7101;51.600;7.310;2023-01-16T07:17:32;5.40;1.00
14053;DHT22;7101;51.600;7.310;2023-01-16T07:20:17;5.40;1.00
14053;DHT22;7101;51.600;7.310;2023-01-16T07:23:13;5.40;1.00
14053;DHT22;7101;51.600;7.310;2023-01-16T07:25:43;5.40;1.00
14053;DHT22;7101;51.600;7.310;2023-01-16T07:28:12;5.50;1.00
14053;DHT22;7101;51.600;7.310;2023-01-16T07:30:40;5.50;1.00
14053;DHT22;7101;51.600;7.310;2023-01-16T07:33:07;5.50;1.00
14053;DHT22;7101;51.600;7.310;2023-01-16T07:35:35;5.50;1.00
14053;DHT22;7101;51.600;7.310;2023-01-16T07:38:02;5.50;1.00
14053;DHT22;7101;51.600;7.310;2023-01-16T07:40:30;5.50;1.00
14053;DHT22;7101;51.600;7.310;2023-01-16T07:42:58;5.60;1.00
14053;DHT22;7101;51.600;7.310;2023-01-16T07:45:25;5.70;1.00
14053;DHT22;7101;51.600;7.310;2023-01-16T07:47:52;5.60;1.00
14053;DHT22;7101;51.600;7.310;2023-01-16T07:50:20;5.60;1.00
14053;DHT22;7101;51.600;7.310;2023-01-16T07:52:47;5.70;1.00
14053;DHT22;7101;51.600;7.310;2023-01-16T07:55:14;5.70;1.00
14053;DHT22;7101;51.600;7.310;2023-01-16T07:57:42;5.80;1.00
14053;DHT22;7101;51.600;7.310;2023-01-16T08:00:12;5.70;1.00
14053;DHT22;7101;51.600;7.310;2023-01-16T08:02:39;5.70;1.00
14053;DHT22;7101;51.600;7.310;2023-01-16T08:05:08;5.80;1.00
14053;DHT22;7101;51.600;7.310;2023-01-16T08:07:36;5.80;1.00
14053;DHT22;7101;51.600;7.310;2023-01-16T08:10:04;5.80;1.00
14053;DHT22;7101;51.600;7.310;2023-01-16T08:12:31;5.70;1.00
14053;DHT22;7101;51.600;7.310;2023-01-16T08:14:57;5.70;1.00
14053;DHT22;7101;51.600;7.310;2023-01-16T08:17:27;5.70;1.00
14053;DHT22;7101;51.600;7.310;2023-01-16T08:19:54;5.70;1.00
14053;DHT22;7101;51.600;7.310;2023-01-16T08:22:21;5.70;1.00
14053;DHT22;7101;51.600;7.310;2023-01-16T08:24:49;5.60;1.00
14053;DHT22;7101;51.600;7.310;2023-01-16T08:27:16;5.60;1.00
14053;DHT22;7101;51.600;7.310;2023-01-16T08:29:44;5.60;1.00
14053;DHT22;7101;51.600;7.310;2023-01-16T08:32:11;5.60;1.00
14053;DHT22;7101;51.600;7.310;2023-01-16T08:34:39;5.60;1.00
14053;DHT22;7101;51.600;7.310;2023-01-16T08:37:07;5.60;1.00
14053;DHT22;7101;51.600;7.310;2023-01-16T08:39:37;5.70;1.00
14053;DHT22;7101;51.600;7.310;2023-01-16T08:42:03;5.60;1.00
14053;DHT22;7101;51.600;7.310;2023-01-16T08:44:48;5.60;1.00
14053;DHT22;7101;51.600;7.310;2023-01-16T08:47:32;5.60;1.90
14053;DHT22;7101;51.600;7.310;2023-01-16T08:50:19;5.30;8.80
14053;DHT22;7101;51.600;7.310;2023-01-16T08:53:05;5.30;19.50
14053;DHT22;7101;51.600;7.310;2023-01-16T08:55:32;5.30;22.80
14053;DHT22;7101;51.600;7.310;2023-01-16T08:57:59;5.20;28.70
14053;DHT22;7101;51.600;7.310;2023-01-16T09:00:27;5.10;28.90
14053;DHT22;7101;51.600;7.310;2023-01-16T09:02:55;5.20;28.30
14053;DHT22;7101;51.600;7.310;2023-01-16T09:05:26;5.20;27.60
14053;DHT22;7101;51.600;7.310;2023-01-16T09:07:54;5.20;27.20
14053;DHT22;7101;51.600;7.310;2023-01-16T09:10:21;5.30;29.80
14053;DHT22;7101;51.600;7.310;2023-01-16T09:12:48;5.30;25.00
14053;DHT22;7101;51.600;7.310;2023-01-16T09:15:37;5.30;23.70
14053;DHT22;7101;51.600;7.310;2023-01-16T09:18:05;5.30;24.00
14053;DHT22;7101;51.600;7.310;2023-01-16T09:20:35;5.30;22.00
14053;DHT22;7101;51.600;7.310;2023-01-16T09:23:03;5.40;18.90
14053;DHT22;7101;51.600;7.310;2023-01-16T09:25:31;5.40;14.40
14053;DHT22;7101;51.600;7.310;2023-01-16T09:28:00;5.50;14.50
14053;DHT22;7101;51.600;7.310;2023-01-16T09:30:30;5.50;9.10
14053;DHT22;7101;51.600;7.310;2023-01-16T09:32:56;5.60;2.90
14053;DHT22;7101;51.600;7.310;2023-01-16T09:35:23;5.60;3.70
14053;DHT22;7101;51.600;7.310;2023-01-16T09:37:53;5.70;2.50
14053;DHT22;7101;51.600;7.310;2023-01-16T09:40:22;5.70;1.00
14053;DHT22;7101;51.600;7.310;2023-01-16T09:42:57;5.70;1.00
14053;DHT22;7101;51.600;7.310;2023-01-16T09:45:44;5.70;1.00
14053;DHT22;7101;51.600;7.310;2023-01-16T09:48:20;5.80;1.00
14053;DHT22;7101;51.600;7.310;2023-01-16T09:50:51;5.90;1.00
14053;DHT22;7101;51.600;7.310;2023-01-16T09:53:26;5.80;1.00
14053;DHT22;7101;51.600;7.310;2023-01-16T09:56:16;5.80;1.00
14053;DHT22;7101;51.600;7.310;2023-01-16T09:59:12;5.80;1.00
14053;DHT22;7101;51.600;7.310;2023-01-16T10:01:47;5.70;1.00
14053;DHT22;7101;51.600;7.310;2023-01-16T10:04:18;5.70;1.00
14053;DHT22;7101;51.600;7.310;2023-01-16T10:06:53;5.80;1.00
14053;DHT22;7101;51.600;7.310;2023-01-16T10:09:31;5.80;1.00
14053;DHT22;7101;51.600;7.310;2023-01-16T10:12:03;5.80;1.00
14053;DHT22;7101;51.600;7.310;2023-01-16T10:14:43;5.70;1.00
14053;DHT22;7101;51.600;7.310;2023-01-16T10:17:21;5.60;1.00
14053;DHT22;7101;51.600;7.310;2023-01-16T10:19:59;5.60;1.00
14053;DHT22;7101;51.600;7.310;2023-01-16T10:22:38;5.60;1.00
14053;DHT22;7101;51.600;7.310;2023-01-16T10:25:18;5.60;1.00
14053;DHT22;7101;51.600;7.310;2023-01-16T10:27:51;5.50;1.00
14053;DHT22;7101;51.600;7.310;2023-01-16T10:30:21;5.60;1.00
14053;DHT22;7101;51.600;7.310;2023-01-16T10:33:03;5.60;4.70
14053;DHT22;7101;51.600;7.310;2023-01-16T10:35:34;5.60;5.40
14053;DHT22;7101;51.600;7.310;2023-01-16T10:38:18;5.60;9.00
14053;DHT22;7101;51.600;7.310;2023-01-16T10:40:49;5.50;4.20
14053;DHT22;7101;51.600;7.310;2023-01-16T10:43:25;5.50;1.00
14053;DHT22;7101;51.600;7.310;2023-01-16T10:46:17;5.60;1.00
14053;DHT22;7101;51.600;7.310;2023-01-16T10:49:02;5.60;1.00
14053;DHT22;7101;51.600;7.310;2023-01-16T10:51:57;5.60;1.00
14053;DHT22;7101;51.600;7.310;2023-01-16T10:54:26;5.60;1.00
14053;DHT22;7101;51.600;7.310;2023-01-16T10:56:55;5.60;1.00
14053;DHT22;7101;51.600;7.310;2023-01-16T10:59:25;5.60;1.00
14053;DHT22;7101;51.600;7.310;2023-01-16T11:01:53;5.60;1.00
14053;DHT22;7101;51.600;7.310;2023-01-16T11:04:33;5.50;1.00
14053;DHT22;7101;51.600;7.310;2023-01-16T11:07:13;5.50;1.00
14053;DHT22;7101;51.600;7.310;2023-01-16T11:09:43;5.60;1.00
14053;DHT22;7101;51.600;7.310;2023-01-16T11:12:19;5.60;1.00
14053;DHT22;7101;51.600;7.310;2023-01-16T11:15:14;5.80;1.00
14053;DHT22;7101;51.600;7.310;2023-01-16T11:18:19;5.80;1.00
14053;DHT22;7101;51.600;7.310;2023-01-16T11:20:58;5.90;1.00
14053;DHT22;7101;51.600;7.310;2023-01-16T11:23:47;5.90;1.00
14053;DHT22;7101;51.600;7.310;2023-01-16T11:26:16;6.10;1.00
14053;DHT22;7101;51.600;7.310;2023-01-16T11:28:47;6.10;1.00
14053;DHT22;7101;51.600;7.310;2023-01-16T11:31:18;6.20;1.00
14053;DHT22;7101;51.600;7.310;2023-01-16T11:33:49;6.30;1.00
14053;DHT22;7101;51.600;7.310;2023-01-16T11:36:21;6.40;1.00
14053;DHT22;7101;51.600;7.310;2023-01-16T11:38:50;6.40;1.00
14053;DHT22;7101;51.600;7.310;2023-01-16T11:41:31;6.40;1.00
14053;DHT22;7101;51.600;7.310;2023-01-16T11:44:19;6.50;1.00
14053;DHT22;7101;51.600;7.310;2023-01-16T11:47:04;6.60;1.00
14053;DHT22;7101;51.600;7.310;2023-01-16T11:49:35;6.70;1.00
14053;DHT22;7101;51.600;7.310;2023-01-16T11:52:03;6.60;1.00
14053;DHT22;7101;51.600;7.310;2023-01-16T11:54:36;6.70;1.00
14053;DHT22;7101;51.600;7.310;2023-01-16T11:57:33;6.80;1.00
14053;DHT22;7101;51.600;7.310;2023-01-16T12:03:42;7.40;1.00
14053;DHT22;7101;51.600;7.310;2023-01-16T12:06:22;7.50;1.00
14053;DHT22;7101;51.600;7.310;2023-01-16T12:09:02;7.40;1.00
14053;DHT22;7101;51.600;7.310;2023-01-16T12:11:48;7.10;1.00
14053;DHT22;7101;51.600;7.310;2023-01-16T12:14:23;7.10;1.00
14053;DHT22;7101;51.600;7.310;2023-01-16T12:17:05;7.10;1.00
14053;DHT22;7101;51.600;7.310;2023-01-16T12:22:54;6.90;1.00
14053;DHT22;7101;51.600;7.310;2023-01-16T12:25:28;6.90;1.00
14053;DHT22;7101;51.600;7.310;2023-01-16T12:28:08;6.90;1.00
14053;DHT22;7101;51.600;7.310;2023-01-16T12:30:47;6.70;1.00
14053;DHT22;7101;51.600;7.310;2023-01-16T12:33:31;6.60;1.00
14053;DHT22;7101;51.600;7.310;2023-01-16T12:36:06;6.50;1.00
14053;DHT22;7101;51.600;7.310;2023-01-16T12:38:37;6.40;1.00
14053;DHT22;7101;51.600;7.310;2023-01-16T12:41:17;6.50;1.00
14053;DHT22;7101;51.600;7.310;2023-01-16T12:44:14;6.60;1.00
14053;DHT22;7101;51.600;7.310;2023-01-16T12:46:46;6.80;1.00
14053;DHT22;7101;51.600;7.310;2023-01-16T12:49:29;7.10;1.00
14053;DHT22;7101;51.600;7.310;2023-01-16T12:52:13;7.10;1.00
14053;DHT22;7101;51.600;7.310;2023-01-16T12:54:49;7.00;1.00
14053;DHT22;7101;51.600;7.310;2023-01-16T12:57:33;6.80;1.00
14053;DHT22;7101;51.600;7.310;2023-01-16T13:00:09;6.80;1.00
14053;DHT22;7101;51.600;7.310;2023-01-16T13:02:41;6.90;1.00
14053;DHT22;7101;51.600;7.310;2023-01-16T13:05:14;6.80;1.00
14053;DHT22;7101;51.600;7.310;2023-01-16T13:07:48;6.90;1.00
14053;DHT22;7101;51.600;7.310;2023-01-16T13:10:21;6.80;1.00
14053;DHT22;7101;51.600;7.310;2023-01-16T13:13:13;6.70;1.00
14053;DHT22;7101;51.600;7.310;2023-01-16T13:15:57;6.60;1.00
14053;DHT22;7101;51.600;7.310;2023-01-16T13:18:28;6.50;1.00
14053;DHT22;7101;51.600;7.310;2023-01-16T13:21:01;6.50;1.00
14053;DHT22;7101;51.600;7.310;2023-01-16T13:23:31;6.40;1.00
14053;DHT22;7101;51.600;7.310;2023-01-16T13:26:01;6.40;1.00
14053;DHT22;7101;51.600;7.310;2023-01-16T13:28:38;6.40;1.00
14053;DHT22;7101;51.600;7.310;2023-01-16T13:31:17;6.40;1.00
14053;DHT22;7101;51.600;7.310;2023-01-16T13:33:49;6.40;1.00
14053;DHT22;7101;51.600;7.310;2023-01-16T13:36:43;6.40;1.00
14053;DHT22;7101;51.600;7.310;2023-01-16T13:39:53;6.40;1.00
14053;DHT22;7101;51.600;7.310;2023-01-16T13:42:26;6.40;1.00
14053;DHT22;7101;51.600;7.310;2023-01-16T13:45:00;6.40;1.00
14053;DHT22;7101;51.600;7.310;2023-01-16T13:47:47;6.40;1.00
14053;DHT22;7101;51.600;7.310;2023-01-16T13:50:20;6.30;1.00
14053;DHT22;7101;51.600;7.310;2023-01-16T13:52:53;6.40;1.00
14053;DHT22;7101;51.600;7.310;2023-01-16T13:55:27;6.30;1.00
14053;DHT22;7101;51.600;7.310;2023-01-16T13:57:56;6.20;1.00
14053;DHT22;7101;51.600;7.310;2023-01-16T14:00:24;6.10;1.00
14053;DHT22;7101;51.600;7.310;2023-01-16T14:03:17;6.00;1.00
14053;DHT22;7101;51.600;7.310;2023-01-16T14:05:49;5.90;1.00
14053;DHT22;7101;51.600;7.310;2023-01-16T14:08:45;5.90;1.00
14053;DHT22;7101;51.600;7.310;2023-01-16T14:11:40;5.90;1.00
14053;DHT22;7101;51.600;7.310;2023-01-16T14:14:33;5.90;1.00
14053;DHT22;7101;51.600;7.310;2023-01-16T14:17:19;5.90;1.00
14053;DHT22;7101;51.600;7.310;2023-01-16T14:19:55;5.90;1.00
14053;DHT22;7101;51.600;7.310;2023-01-16T14:22:32;5.90;1.00
14053;DHT22;7101;51.600;7.310;2023-01-16T14:25:21;6.00;1.00
14053;DHT22;7101;51.600;7.310;2023-01-16T14:27:52;6.00;1.00
14053;DHT22;7101;51.600;7.310;2023-01-16T14:30:24;6.10;1.00
14053;DHT22;7101;51.600;7.310;2023-01-16T14:32:54;6.20;1.00
14053;DHT22;7101;51.600;7.310;2023-01-16T14:35:24;6.20;1.00
14053;DHT22;7101;51.600;7.310;2023-01-16T14:38:04;6.20;1.00
14053;DHT22;7101;51.600;7.310;2023-01-16T14:40:37;6.10;1.00
14053;DHT22;7101;51.600;7.310;2023-01-16T14:43:27;6.10;1.00
14053;DHT22;7101;51.600;7.310;2023-01-16T14:50:03;5.90;1.00
14053;DHT22;7101;51.600;7.310;2023-01-16T14:53:03;5.80;1.00
14053;DHT22;7101;51.600;7.310;2023-01-16T14:55:53;5.80;1.00
14053;DHT22;7101;51.600;7.310;2023-01-16T14:58:34;5.90;1.00
14053;DHT22;7101;51.600;7.310;2023-01-16T15:01:04;6.00;1.00
14053;DHT22;7101;51.600;7.310;2023-01-16T15:03:50;5.80;1.00
14053;DHT22;7101;51.600;7.310;2023-01-16T15:06:17;5.70;1.00
14053;DHT22;7101;51.600;7.310;2023-01-16T15:08:45;5.70;13.80
14053;DHT22;7101;51.600;7.310;2023-01-16T15:11:23;5.70;20.60
14053;DHT22;7101;51.600;7.310;2023-01-16T15:14:13;5.60;25.60
14053;DHT22;7101;51.600;7.310;2023-01-16T15:16:58;5.50;36.10
14053;DHT22;7101;51.600;7.310;2023-01-16T15:20:18;5.40;49.60
14053;DHT22;7101;51.600;7.310;2023-01-16T15:23:06;5.20;57.60
14053;DHT22;7101;51.600;7.310;2023-01-16T15:25:51;5.30;68.60
14053;DHT22;7101;51.600;7.310;2023-01-16T15:28:33;5.20;75.10
14053;DHT22;7101;51.600;7.310;2023-01-16T15:31:06;5.20;73.20
14053;DHT22;7101;51.600;7.310;2023-01-16T15:33:34;5.20;84.10
14053;DHT22;7101;51.600;7.310;2023-01-16T15:36:20;5.10;89.00
14053;DHT22;7101;51.600;7.310;2023-01-16T15:38:49;5.10;86.70
14053;DHT22;7101;51.600;7.310;2023-01-16T15:41:20;5.00;99.20
14053;DHT22;7101;51.600;7.310;2023-01-16T15:44:17;5.00;99.90
14053;DHT22;7101;51.600;7.310;2023-01-16T15:47:32;4.90;99.90
14053;DHT22;7101;51.600;7.310;2023-01-16T15:50:25;4.90;99.90
14053;DHT22;7101;51.600;7.310;2023-01-16T15:52:54;4.90;99.90
14053;DHT22;7101;51.600;7.310;2023-01-16T15:55:23;4.80;99.90
14053;DHT22;7101;51.600;7.310;2023-01-16T15:57:55;4.90;99.90
14053;DHT22;7101;51.600;7.310;2023-01-16T16:00:30;4.90;99.90
14053;DHT22;7101;51.600;7.310;2023-01-16T16:03:00;5.00;99.90
14053;DHT22;7101;51.600;7.310;2023-01-16T16:05:29;4.90;99.40
14053;DHT22;7101;51.600;7.310;2023-01-16T16:07:58;4.90;99.90
14053;DHT22;7101;51.600;7.310;2023-01-16T16:10:25;4.90;99.90
14053;DHT22;7101;51.600;7.310;2023-01-16T16:13:15;4.90;99.90
14053;DHT22;7101;51.600;7.310;2023-01-16T16:15:58;5.00;99.90
14053;DHT22;7101;51.600;7.310;2023-01-16T16:18:54;5.00;99.90
14053;DHT22;7101;51.600;7.310;2023-01-16T16:21:23;5.10;99.90
14053;DHT22;7101;51.600;7.310;2023-01-16T16:23:59;5.10;99.90
14053;DHT22;7101;51.600;7.310;2023-01-16T16:26:28;5.10;99.90
14053;DHT22;7101;51.600;7.310;2023-01-16T16:28:56;5.00;99.90
14053;DHT22;7101;51.600;7.310;2023-01-16T16:31:35;5.00;99.90
14053;DHT22;7101;51.600;7.310;2023-01-16T16:34:05;5.00;99.90
14053;DHT22;7101;51.600;7.310;2023-01-16T16:36:37;5.10;99.90
14053;DHT22;7101;51.600;7.310;2023-01-16T16:39:26;5.10;99.90
14053;DHT22;7101;51.600;7.310;2023-01-16T16:41:53;5.10;99.90
14053;DHT22;7101;51.600;7.310;2023-01-16T16:44:40;5.20;99.90
14053;DHT22;7101;51.600;7.310;2023-01-16T16:47:21;5.10;99.40
14053;DHT22;7101;51.600;7.310;2023-01-16T16:49:49;5.10;99.90
14053;DHT22;7101;51.600;7.310;2023-01-16T16:52:34;5.20;91.40
14053;DHT22;7101;51.600;7.310;2023-01-16T16:55:25;5.20;90.00
14053;DHT22;7101;51.600;7.310;2023-01-16T16:57:56;5.20;94.60
14053;DHT22;7101;51.600;7.310;2023-01-16T17:00:30;5.20;93.00
14053;DHT22;7101;51.600;7.310;2023-01-16T17:03:04;5.20;91.50
14053;DHT22;7101;51.600;7.310;2023-01-16T17:05:33;5.20;89.00